createdAt,value
2024-04-25T00:00:39.044Z,0.38
2024-04-25T00:01:40.912Z,0.40
2024-04-25T00:02:42.737Z,0.50
2024-04-25T00:03:44.478Z,0.38
2024-04-25T00:04:49.490Z,0.20
2024-04-25T00:05:51.201Z,0.30
2024-04-25T00:06:52.906Z,0.38
2024-04-25T00:07:54.750Z,0.25
2024-04-25T00:08:57.194Z,0.40
2024-04-25T00:09:58.964Z,0.30
2024-04-25T00:11:00.789Z,0.32
2024-04-25T00:12:02.577Z,0.40
2024-04-25T00:13:04.588Z,0.47
2024-04-25T00:14:06.330Z,1.35
2024-04-25T00:15:08.466Z,0.30
2024-04-25T00:16:10.195Z,0.28
2024-04-25T00:17:11.911Z,0.68
2024-04-25T00:18:13.712Z,0.43
2024-04-25T00:19:15.422Z,0.30
2024-04-25T00:20:17.194Z,0.30
2024-04-25T00:21:18.898Z,0.30
2024-04-25T00:22:20.673Z,0.70
2024-04-25T00:23:22.390Z,0.45
2024-04-25T00:24:24.667Z,0.55
2024-04-25T00:25:26.377Z,0.30
2024-04-25T00:26:28.476Z,0.30
2024-04-25T00:27:30.299Z,0.65
2024-04-25T00:28:32.002Z,0.28
2024-04-25T00:29:33.804Z,0.88
2024-04-25T00:30:35.593Z,0.20
2024-04-25T00:31:37.519Z,0.30
2024-04-25T00:32:39.368Z,0.35
2024-04-25T00:33:41.256Z,0.70
2024-04-25T00:34:43.000Z,0.32
2024-04-25T00:35:44.736Z,0.30
2024-04-25T00:36:46.462Z,0.20
2024-04-25T00:37:48.155Z,0.45
2024-04-25T00:38:49.905Z,0.47
2024-04-25T00:39:52.463Z,0.30
2024-04-25T00:40:54.167Z,0.40
2024-04-25T00:41:55.826Z,0.20
2024-04-25T00:42:58.765Z,0.95
2024-04-25T00:44:01.237Z,0.50
2024-04-25T00:45:03.225Z,0.60
2024-04-25T00:46:05.042Z,0.40
2024-04-25T00:47:07.381Z,0.68
2024-04-25T00:48:09.496Z,0.40
2024-04-25T00:49:12.687Z,0.40
2024-04-25T00:50:14.640Z,0.40
2024-04-25T00:51:19.074Z,0.40
2024-04-25T00:52:21.616Z,0.30
2024-04-25T00:53:23.908Z,0.40
2024-04-25T00:54:25.697Z,0.50
2024-04-25T00:55:28.651Z,0.32
2024-04-25T00:56:32.499Z,0.55
2024-04-25T00:57:36.176Z,0.40
2024-04-25T00:58:38.997Z,0.47
2024-04-25T00:59:47.797Z,0.70
2024-04-25T01:00:50.720Z,0.43
2024-04-25T01:01:52.523Z,0.60
2024-04-25T01:02:55.837Z,0.60
2024-04-25T01:04:02.064Z,0.68
2024-04-25T01:05:06.991Z,0.93
2024-04-25T01:06:09.070Z,0.30
2024-04-25T01:07:11.296Z,0.98
2024-04-25T01:08:13.911Z,0.50
2024-04-25T01:09:15.606Z,0.70
2024-04-25T01:10:17.436Z,0.35
2024-04-25T01:11:19.519Z,0.30
2024-04-25T01:12:21.395Z,0.40
2024-04-25T01:13:23.154Z,0.77
2024-04-25T01:14:25.123Z,0.55
2024-04-25T01:15:27.191Z,0.80
2024-04-25T01:16:28.970Z,0.30
2024-04-25T01:17:32.088Z,0.63
2024-04-25T01:18:35.115Z,0.55
2024-04-25T01:19:36.808Z,0.47
2024-04-25T01:20:38.660Z,0.20
2024-04-25T01:21:40.539Z,0.40
2024-04-25T01:22:50.372Z,0.40
2024-04-25T01:23:55.419Z,0.35
2024-04-25T01:24:57.752Z,0.47
2024-04-25T01:25:59.852Z,0.32
2024-04-25T01:27:03.742Z,0.30
2024-04-25T01:28:06.865Z,0.30
2024-04-25T01:29:15.183Z,0.32
2024-04-25T01:30:18.234Z,0.68
2024-04-25T01:31:20.545Z,0.45
2024-04-25T01:32:22.415Z,0.30
2024-04-25T01:33:24.759Z,0.47
2024-04-25T01:34:27.068Z,0.47
2024-04-25T01:35:31.958Z,0.30
2024-04-25T01:36:33.732Z,0.20
2024-04-25T01:37:36.101Z,0.20
2024-04-25T01:38:37.921Z,0.20
2024-04-25T01:39:40.431Z,0.50
2024-04-25T01:40:42.189Z,0.40
2024-04-25T01:41:44.066Z,0.60
2024-04-25T01:42:45.883Z,0.70
2024-04-25T01:43:47.643Z,0.22
2024-04-25T01:44:49.801Z,0.30
2024-04-25T01:45:51.518Z,0.30
2024-04-25T01:46:56.161Z,0.47
2024-04-25T01:47:58.088Z,0.77
2024-04-25T01:49:02.885Z,0.40
2024-04-25T01:50:04.906Z,0.28
2024-04-25T01:51:06.646Z,0.50
2024-04-25T01:52:08.369Z,0.28
2024-04-25T01:53:10.294Z,0.55
2024-04-25T01:54:12.042Z,0.57
2024-04-25T01:55:13.852Z,0.30
2024-04-25T01:56:15.641Z,0.30
2024-04-25T01:57:17.323Z,0.80
2024-04-25T01:58:19.055Z,0.40
2024-04-25T01:59:20.792Z,0.50
2024-04-25T02:00:22.510Z,0.70
2024-04-25T02:01:24.230Z,0.30
2024-04-25T02:02:26.003Z,0.68
2024-04-25T02:03:27.771Z,0.40
2024-04-25T02:04:29.462Z,0.45
2024-04-25T02:05:31.184Z,0.30
2024-04-25T02:06:32.911Z,0.40
2024-04-25T02:07:35.093Z,0.77
2024-04-25T02:08:36.884Z,0.50
2024-04-25T02:09:38.632Z,0.40
2024-04-25T02:10:40.329Z,0.47
2024-04-25T02:11:42.202Z,0.40
2024-04-25T02:12:43.968Z,0.50
2024-04-25T02:13:45.644Z,0.60
2024-04-25T02:14:47.336Z,0.50
2024-04-25T02:15:49.092Z,0.70
2024-04-25T02:16:50.792Z,0.52
2024-04-25T02:17:52.589Z,0.77
2024-04-25T02:18:54.436Z,0.90
2024-04-25T02:19:56.206Z,0.55
2024-04-25T02:21:16.983Z,0.80
2024-04-25T02:22:37.223Z,0.43
2024-04-25T02:23:57.451Z,0.68
2024-04-25T02:25:18.013Z,0.63
2024-04-25T02:26:19.855Z,0.85
2024-04-25T02:27:21.574Z,1.25
2024-04-25T02:28:23.314Z,0.80
2024-04-25T02:29:25.065Z,1.33
2024-04-25T02:30:26.778Z,0.47
2024-04-25T02:31:33.029Z,0.57
2024-04-25T02:32:35.150Z,0.60
2024-04-25T02:33:36.865Z,0.63
2024-04-25T02:34:38.770Z,0.73
2024-04-25T02:35:40.521Z,0.80
2024-04-25T02:36:42.235Z,1.02
2024-04-25T02:37:44.080Z,1.00
2024-04-25T02:38:45.747Z,0.60
2024-04-25T02:39:49.184Z,0.98
2024-04-25T02:40:50.980Z,0.77
2024-04-25T02:41:52.697Z,0.80
2024-04-25T02:42:54.374Z,0.85
2024-04-25T02:43:56.065Z,0.90
2024-04-25T02:44:57.744Z,0.77
2024-04-25T02:45:59.506Z,0.70
2024-04-25T02:47:01.175Z,0.70
2024-04-25T02:48:03.125Z,0.40
2024-04-25T02:49:04.873Z,0.82
2024-04-25T02:50:08.831Z,0.93
2024-04-25T02:51:10.592Z,1.10
2024-04-25T02:52:12.296Z,0.80
2024-04-25T02:53:13.999Z,0.82
2024-04-25T02:54:15.841Z,0.60
2024-04-25T02:55:17.543Z,0.77
2024-04-25T02:56:19.318Z,0.68
2024-04-25T02:57:21.024Z,0.57
2024-04-25T02:58:22.759Z,0.73
2024-04-25T02:59:24.468Z,0.55
2024-04-25T03:00:26.196Z,0.60
2024-04-25T03:01:29.558Z,0.80
2024-04-25T03:02:31.444Z,0.57
2024-04-25T03:03:33.447Z,0.75
2024-04-25T03:04:35.331Z,0.80
2024-04-25T03:05:42.051Z,0.93
2024-04-25T03:06:44.811Z,0.70
2024-04-25T03:07:46.575Z,1.20
2024-04-25T03:08:48.342Z,1.23
2024-04-25T03:09:50.073Z,0.90
2024-04-25T03:10:52.026Z,1.33
2024-04-25T03:11:53.840Z,0.98
2024-04-25T03:12:55.634Z,0.77
2024-04-25T03:13:57.426Z,1.13
2024-04-25T03:14:59.173Z,0.80
2024-04-25T03:16:05.584Z,1.38
2024-04-25T03:17:07.349Z,0.90
2024-04-25T03:18:09.330Z,0.60
2024-04-25T03:19:11.229Z,1.13
2024-04-25T03:20:14.311Z,0.73
2024-04-25T03:21:16.153Z,1.10
2024-04-25T03:22:18.182Z,1.08
2024-04-25T03:23:19.864Z,0.88
2024-04-25T03:24:21.648Z,1.73
2024-04-25T03:25:23.338Z,1.10
2024-04-25T03:26:25.031Z,1.77
2024-04-25T03:27:26.766Z,1.25
2024-04-25T03:28:28.533Z,1.23
2024-04-25T03:29:30.253Z,1.38
2024-04-25T03:30:31.950Z,1.60
2024-04-25T03:31:33.626Z,1.80
2024-04-25T03:32:35.478Z,1.23
2024-04-25T03:33:37.267Z,1.23
2024-04-25T03:34:38.957Z,1.20
2024-04-25T03:35:41.633Z,1.52
2024-04-25T03:36:43.473Z,2.25
2024-04-25T03:37:46.029Z,1.45
2024-04-25T03:38:47.871Z,1.48
2024-04-25T03:39:51.116Z,1.75
2024-04-25T03:40:53.011Z,1.65
2024-04-25T03:41:54.813Z,1.48
2024-04-25T03:42:56.612Z,1.00
2024-04-25T03:43:58.520Z,1.10
2024-04-25T03:45:00.246Z,0.65
2024-04-25T03:46:02.072Z,0.95
2024-04-25T03:47:03.835Z,0.85
2024-04-25T03:48:06.183Z,0.65
2024-04-25T03:49:09.659Z,1.23
2024-04-25T03:50:11.490Z,0.95
2024-04-25T03:51:13.304Z,0.80
2024-04-25T03:52:15.061Z,0.70
2024-04-25T03:53:16.900Z,0.82
2024-04-25T03:54:19.006Z,0.50
2024-04-25T03:55:20.788Z,0.75
2024-04-25T03:56:22.903Z,0.55
2024-04-25T03:57:24.641Z,0.70
2024-04-25T03:58:26.433Z,0.40
2024-04-25T03:59:28.145Z,0.50
2024-04-25T04:00:30.130Z,0.40
2024-04-25T04:01:31.824Z,0.88
2024-04-25T04:02:33.663Z,0.88
2024-04-25T04:03:35.462Z,0.40
2024-04-25T04:04:38.203Z,0.55
2024-04-25T04:05:39.960Z,0.88
2024-04-25T04:06:42.118Z,0.65
2024-04-25T04:07:45.062Z,0.63
2024-04-25T04:08:46.887Z,0.50
2024-04-25T04:09:49.144Z,0.68
2024-04-25T04:10:50.856Z,0.55
2024-04-25T04:11:52.740Z,0.28
2024-04-25T04:12:55.675Z,0.35
2024-04-25T04:13:57.461Z,0.40
2024-04-25T04:14:59.206Z,0.47
2024-04-25T04:16:00.929Z,0.40
2024-04-25T04:17:02.632Z,0.50
2024-04-25T04:18:04.949Z,0.57
2024-04-25T04:19:06.726Z,0.45
2024-04-25T04:20:08.825Z,0.35
2024-04-25T04:21:13.942Z,0.30
2024-04-25T04:22:15.978Z,0.30
2024-04-25T04:23:17.693Z,0.43
2024-04-25T04:24:19.607Z,0.20
2024-04-25T04:25:28.911Z,0.60
2024-04-25T04:26:30.634Z,0.40
2024-04-25T04:27:32.336Z,0.22
2024-04-25T04:28:34.029Z,0.43
2024-04-25T04:29:35.762Z,0.85
2024-04-25T04:30:37.526Z,0.52
2024-04-25T04:31:39.226Z,0.50
2024-04-25T04:32:41.360Z,0.32
2024-04-25T04:33:43.445Z,0.55
2024-04-25T04:34:45.828Z,0.73
2024-04-25T04:35:47.578Z,0.47
2024-04-25T04:36:49.407Z,0.70
2024-04-25T04:37:51.101Z,0.50
2024-04-25T04:38:52.799Z,0.73
2024-04-25T04:39:54.529Z,1.55
2024-04-25T04:40:56.221Z,0.68
2024-04-25T04:41:57.998Z,0.80
2024-04-25T04:42:59.823Z,0.70
2024-04-25T04:44:01.751Z,1.00
2024-04-25T04:45:03.599Z,0.80
2024-04-25T04:46:05.716Z,1.33
2024-04-25T04:47:07.574Z,0.52
2024-04-25T04:48:15.840Z,0.40
2024-04-25T04:49:21.421Z,0.50
2024-04-25T04:50:24.182Z,1.23
2024-04-25T04:51:25.898Z,0.35
2024-04-25T04:52:27.572Z,1.13
2024-04-25T04:53:29.302Z,0.55
2024-04-25T04:54:30.989Z,0.32
2024-04-25T04:55:32.715Z,0.65
2024-04-25T04:56:34.494Z,0.65
2024-04-25T04:57:36.240Z,0.70
2024-04-25T04:58:39.249Z,0.60
2024-04-25T04:59:40.941Z,0.65
2024-04-25T05:00:42.770Z,0.60
2024-04-25T05:01:44.623Z,0.60
2024-04-25T05:02:46.421Z,0.82
2024-04-25T05:03:48.207Z,0.77
2024-04-25T05:04:49.895Z,0.70
2024-04-25T05:05:51.834Z,0.50
2024-04-25T05:06:53.803Z,0.90
2024-04-25T05:07:57.396Z,0.70
2024-04-25T05:08:59.227Z,0.70
2024-04-25T05:10:00.921Z,0.70
2024-04-25T05:11:02.700Z,0.55
2024-04-25T05:12:04.979Z,0.88
2024-04-25T05:13:08.430Z,0.52
2024-04-25T05:14:11.645Z,0.90
2024-04-25T05:15:13.379Z,0.50
2024-04-25T05:16:15.210Z,0.88
2024-04-25T05:17:16.958Z,0.95
2024-04-25T05:18:18.702Z,1.10
2024-04-25T05:19:20.815Z,0.75
2024-04-25T05:20:22.534Z,0.95
2024-04-25T05:21:24.261Z,0.50
2024-04-25T05:22:25.931Z,0.75
2024-04-25T05:23:27.682Z,1.05
2024-04-25T05:24:29.463Z,0.75
2024-04-25T05:25:31.667Z,0.52
2024-04-25T05:26:33.741Z,0.80
2024-04-25T05:27:38.490Z,1.30
2024-04-25T05:28:40.199Z,0.85
2024-04-25T05:29:41.974Z,1.33
2024-04-25T05:30:45.123Z,1.10
2024-04-25T05:31:46.847Z,1.15
2024-04-25T05:32:50.513Z,1.15
2024-04-25T05:33:52.448Z,1.00
2024-04-25T05:34:58.713Z,1.08
2024-04-25T05:36:03.240Z,0.70
2024-04-25T05:37:05.221Z,0.80
2024-04-25T05:38:07.256Z,1.15
2024-04-25T05:39:08.977Z,0.85
2024-04-25T05:40:13.910Z,0.98
2024-04-25T05:41:15.646Z,1.13
2024-04-25T05:42:17.400Z,0.85
2024-04-25T05:43:19.085Z,1.13
2024-04-25T05:44:20.802Z,0.73
2024-04-25T05:45:22.595Z,0.60
2024-04-25T05:46:25.388Z,0.80
2024-04-25T05:47:27.581Z,0.77
2024-04-25T05:48:33.821Z,1.17
2024-04-25T05:49:36.122Z,1.13
2024-04-25T05:50:38.738Z,1.95
2024-04-25T05:51:40.492Z,0.80
2024-04-25T05:52:42.582Z,0.90
2024-04-25T05:53:44.544Z,1.05
2024-04-25T05:54:47.498Z,0.90
2024-04-25T05:55:49.220Z,0.93
2024-04-25T05:56:50.964Z,0.68
2024-04-25T05:57:52.665Z,0.43
2024-04-25T05:58:58.288Z,0.43
2024-04-25T06:00:00.420Z,0.70
2024-04-25T06:01:02.207Z,0.52
2024-04-25T06:02:04.321Z,0.38
2024-04-25T06:03:06.218Z,0.40
2024-04-25T06:04:08.467Z,0.43
2024-04-25T06:05:12.451Z,0.60
2024-04-25T06:06:14.277Z,0.77
2024-04-25T06:07:15.984Z,0.40
2024-04-25T06:08:17.738Z,0.55
2024-04-25T06:09:20.684Z,0.77
2024-04-25T06:10:23.279Z,0.70
2024-04-25T06:11:27.755Z,0.80
2024-04-25T06:12:30.761Z,0.75
2024-04-25T06:13:32.558Z,0.40
2024-04-25T06:14:34.657Z,1.10
2024-04-25T06:15:36.476Z,0.55
2024-04-25T06:16:38.185Z,0.60
2024-04-25T06:17:44.253Z,1.17
2024-04-25T06:18:49.042Z,0.88
2024-04-25T06:19:50.810Z,0.98
2024-04-25T06:20:52.539Z,0.75
2024-04-25T06:21:54.483Z,0.70
2024-04-25T06:22:56.194Z,0.75
2024-04-25T06:24:00.849Z,0.77
2024-04-25T06:25:03.284Z,0.40
2024-04-25T06:26:05.195Z,0.70
2024-04-25T06:27:06.944Z,1.10
2024-04-25T06:28:10.089Z,0.88
2024-04-25T06:29:11.879Z,0.98
2024-04-25T06:30:14.724Z,0.70
2024-04-25T06:31:16.837Z,0.73
2024-04-25T06:32:18.638Z,0.60
2024-04-25T06:33:20.437Z,0.50
2024-04-25T06:34:22.254Z,0.55
2024-04-25T06:35:24.003Z,1.00
2024-04-25T06:36:25.684Z,0.60
2024-04-25T06:37:27.353Z,1.20
2024-04-25T06:38:29.282Z,1.15
2024-04-25T06:39:31.057Z,1.05
2024-04-25T06:40:33.093Z,1.15
2024-04-25T06:41:42.765Z,0.93
2024-04-25T06:42:52.287Z,0.65
2024-04-25T06:43:55.238Z,0.73
2024-04-25T06:44:58.334Z,0.50
2024-04-25T06:46:00.136Z,0.52
2024-04-25T06:47:03.577Z,0.50
2024-04-25T06:48:06.131Z,0.32
2024-04-25T06:49:08.037Z,0.60
2024-04-25T06:50:09.882Z,0.45
2024-04-25T06:51:11.614Z,0.30
2024-04-25T06:52:13.342Z,0.30
2024-04-25T06:53:15.066Z,0.40
2024-04-25T06:54:18.086Z,0.45
2024-04-25T06:55:21.063Z,0.63
2024-04-25T06:56:22.882Z,0.70
2024-04-25T06:57:24.876Z,0.30
2024-04-25T06:58:26.558Z,0.40
2024-04-25T06:59:29.054Z,1.38
2024-04-25T07:00:31.127Z,1.20
2024-04-25T07:01:32.904Z,1.60
2024-04-25T07:02:34.741Z,1.92
2024-04-25T07:03:36.541Z,1.25
2024-04-25T07:04:38.251Z,1.05
2024-04-25T07:05:40.010Z,1.20
2024-04-25T07:06:41.773Z,0.75
2024-04-25T07:07:43.824Z,1.08
2024-04-25T07:08:45.567Z,1.17
2024-04-25T07:09:47.272Z,1.10
2024-04-25T07:10:50.254Z,1.33
2024-04-25T07:11:52.050Z,0.80
2024-04-25T07:12:54.496Z,1.08
2024-04-25T07:13:56.173Z,0.82
2024-04-25T07:14:58.675Z,0.50
2024-04-25T07:16:01.006Z,0.20
2024-04-25T07:17:02.795Z,0.32
2024-04-25T07:18:06.387Z,0.45
2024-04-25T07:19:08.222Z,0.60
2024-04-25T07:20:10.597Z,0.57
2024-04-25T07:21:12.348Z,0.85
2024-04-25T07:22:14.091Z,1.95
2024-04-25T07:23:15.801Z,2.42
2024-04-25T07:24:17.496Z,2.75
2024-04-25T07:25:19.504Z,2.00
2024-04-25T07:26:21.262Z,1.67
2024-04-25T07:27:22.984Z,1.88
2024-04-25T07:28:24.780Z,1.60
2024-04-25T07:29:26.501Z,2.13
2024-04-25T07:30:28.240Z,2.00
2024-04-25T07:31:29.975Z,2.33
2024-04-25T07:32:31.964Z,1.90
2024-04-25T07:33:33.988Z,2.40
2024-04-25T07:34:35.747Z,1.80
2024-04-25T07:35:38.176Z,1.77
2024-04-25T07:36:39.913Z,2.15
2024-04-25T07:37:42.125Z,1.20
2024-04-25T07:38:43.915Z,1.70
2024-04-25T07:39:45.613Z,2.30
2024-04-25T07:40:47.288Z,1.25
2024-04-25T07:41:49.256Z,1.33
2024-04-25T07:42:51.038Z,1.45
2024-04-25T07:43:52.841Z,1.35
2024-04-25T07:44:57.795Z,1.67
2024-04-25T07:45:59.540Z,1.00
2024-04-25T07:47:01.247Z,1.15
2024-04-25T07:48:03.119Z,1.00
2024-04-25T07:49:07.115Z,1.08
2024-04-25T07:50:08.898Z,0.32
2024-04-25T07:51:10.682Z,0.20
2024-04-25T07:52:12.439Z,0.55
2024-04-25T07:53:14.191Z,0.70
2024-04-25T07:54:15.942Z,0.45
2024-04-25T07:55:17.630Z,0.60
2024-04-25T07:56:19.382Z,0.55
2024-04-25T07:57:21.107Z,0.35
2024-04-25T07:58:23.027Z,0.65
2024-04-25T07:59:26.510Z,0.63
2024-04-25T08:00:28.221Z,0.75
2024-04-25T08:01:29.989Z,0.68
2024-04-25T08:02:31.817Z,1.08
2024-04-25T08:03:33.721Z,0.47
2024-04-25T08:04:35.648Z,0.82
2024-04-25T08:05:37.441Z,1.33
2024-04-25T08:06:39.139Z,1.15
2024-04-25T08:07:40.847Z,0.63
2024-04-25T08:08:42.560Z,0.55
2024-04-25T08:09:44.362Z,0.90
2024-04-25T08:10:49.879Z,1.10
2024-04-25T08:11:51.886Z,1.23
2024-04-25T08:12:53.647Z,1.48
2024-04-25T08:13:57.437Z,1.65
2024-04-25T08:15:00.981Z,2.00
2024-04-25T08:16:02.903Z,1.90
2024-04-25T08:17:04.661Z,1.90
2024-04-25T08:18:06.598Z,1.67
2024-04-25T08:19:08.646Z,3.17
2024-04-25T08:20:10.515Z,2.55
2024-04-25T08:21:12.213Z,2.60
2024-04-25T08:22:13.961Z,2.55
2024-04-25T08:23:15.826Z,2.20
2024-04-25T08:24:18.949Z,2.35
2024-04-25T08:25:20.619Z,3.08
2024-04-25T08:26:25.420Z,2.50
2024-04-25T08:27:27.504Z,2.70
2024-04-25T08:28:29.474Z,3.03
2024-04-25T08:29:31.187Z,2.75
2024-04-25T08:30:32.901Z,3.58
2024-04-25T08:31:34.691Z,3.03
2024-04-25T08:32:36.603Z,3.22
2024-04-25T08:33:38.585Z,2.25
2024-04-25T08:34:40.561Z,3.83
2024-04-25T08:35:42.559Z,3.35
2024-04-25T08:36:44.558Z,3.72
2024-04-25T08:37:46.219Z,3.10
2024-04-25T08:38:51.078Z,2.78
2024-04-25T08:39:52.944Z,3.05
2024-04-25T08:40:57.954Z,3.03
2024-04-25T08:42:00.129Z,2.67
2024-04-25T08:43:03.928Z,3.10
2024-04-25T08:44:05.820Z,1.73
2024-04-25T08:45:09.823Z,1.63
2024-04-25T08:46:17.570Z,1.67
2024-04-25T08:47:20.940Z,1.58
2024-04-25T08:48:23.970Z,1.40
2024-04-25T08:49:26.205Z,2.17
2024-04-25T08:50:30.370Z,1.52
2024-04-25T08:51:34.365Z,1.30
2024-04-25T08:52:39.270Z,1.17
2024-04-25T08:53:41.658Z,1.83
2024-04-25T08:54:45.010Z,1.73
2024-04-25T08:55:49.579Z,1.35
2024-04-25T08:56:51.538Z,1.35
2024-04-25T08:57:53.259Z,0.80
2024-04-25T08:58:54.997Z,1.15
2024-04-25T08:59:57.163Z,1.20
2024-04-25T09:01:00.199Z,1.75
2024-04-25T09:02:02.494Z,1.25
2024-04-25T09:03:08.899Z,1.15
2024-04-25T09:04:15.795Z,1.35
2024-04-25T09:05:19.765Z,0.93
2024-04-25T09:06:23.105Z,1.30
2024-04-25T09:07:25.767Z,1.25
2024-04-25T09:08:30.213Z,1.75
2024-04-25T09:09:32.070Z,1.00
2024-04-25T09:10:41.186Z,1.48
2024-04-25T09:11:42.999Z,1.40
2024-04-25T09:12:44.908Z,0.88
2024-04-25T09:13:59.123Z,1.15
2024-04-25T09:15:01.232Z,1.20
2024-04-25T09:16:03.055Z,0.70
2024-04-25T09:17:05.151Z,1.00
2024-04-25T09:18:07.463Z,1.02
2024-04-25T09:19:09.744Z,1.15
2024-04-25T09:20:11.721Z,0.95
2024-04-25T09:21:13.499Z,1.48
2024-04-25T09:22:15.283Z,1.70
2024-04-25T09:23:17.092Z,1.30
2024-04-25T09:24:18.826Z,1.67
2024-04-25T09:25:20.534Z,2.08
2024-04-25T09:26:22.825Z,1.55
2024-04-25T09:27:24.653Z,1.83
2024-04-25T09:28:26.410Z,2.35
2024-04-25T09:29:30.159Z,1.92
2024-04-25T09:30:34.004Z,2.20
2024-04-25T09:31:37.707Z,1.88
2024-04-25T09:32:45.531Z,2.13
2024-04-25T09:33:47.400Z,2.65
2024-04-25T09:34:49.308Z,2.70
2024-04-25T09:35:51.745Z,1.73
2024-04-25T09:36:54.012Z,2.03
2024-04-25T09:37:56.193Z,1.75
2024-04-25T09:38:58.158Z,2.00
2024-04-25T09:40:05.429Z,3.00
2024-04-25T09:41:09.612Z,2.55
2024-04-25T09:42:13.505Z,2.05
2024-04-25T09:43:15.939Z,3.15
2024-04-25T09:44:17.825Z,2.15
2024-04-25T09:45:23.740Z,2.38
2024-04-25T09:46:40.555Z,2.15
2024-04-25T09:47:53.978Z,2.35
2024-04-25T09:48:58.621Z,2.25
2024-04-25T09:50:12.628Z,2.08
2024-04-25T09:51:37.779Z,2.15
2024-04-25T09:52:46.428Z,1.92
2024-04-25T09:53:59.877Z,2.03
2024-04-25T09:55:05.312Z,2.00
2024-04-25T09:56:08.108Z,2.63
2024-04-25T09:57:14.468Z,2.47
2024-04-25T09:58:25.556Z,2.17
2024-04-25T09:59:50.254Z,2.72
2024-04-25T10:00:52.448Z,2.42
2024-04-25T10:01:56.147Z,2.25
2024-04-25T10:02:59.494Z,2.80
2024-04-25T10:04:02.355Z,2.63
2024-04-25T10:05:04.450Z,2.33
2024-04-25T10:06:06.499Z,3.40
2024-04-25T10:07:10.101Z,2.95
2024-04-25T10:08:12.531Z,2.55
2024-04-25T10:09:15.095Z,2.90
2024-04-25T10:10:17.459Z,2.63
2024-04-25T10:11:19.540Z,3.10
2024-04-25T10:12:22.350Z,2.72
2024-04-25T10:13:27.287Z,2.40
2024-04-25T10:14:34.352Z,2.38
2024-04-25T10:15:36.584Z,2.60
2024-04-25T10:16:38.840Z,2.60
2024-04-25T10:17:40.841Z,2.78
2024-04-25T10:18:53.114Z,2.97
2024-04-25T10:19:55.426Z,2.60
2024-04-25T10:21:04.213Z,2.63
2024-04-25T10:22:19.631Z,2.73
2024-04-25T10:23:31.910Z,3.15
2024-04-25T10:24:43.091Z,3.08
2024-04-25T10:25:54.354Z,3.45
2024-04-25T10:26:56.358Z,3.30
2024-04-25T10:28:09.489Z,2.92
2024-04-25T10:29:11.201Z,2.95
2024-04-25T10:30:15.686Z,2.97
2024-04-25T10:31:17.484Z,2.90
2024-04-25T10:32:20.362Z,3.00
2024-04-25T10:33:23.326Z,2.42
2024-04-25T10:34:25.146Z,2.83
2024-04-25T10:35:27.262Z,2.30
2024-04-25T10:36:29.683Z,2.75
2024-04-25T10:37:40.808Z,2.88
2024-04-25T10:38:49.375Z,2.72
2024-04-25T10:39:59.170Z,2.53
2024-04-25T10:41:00.986Z,2.38
2024-04-25T10:42:02.714Z,2.33
2024-04-25T10:43:05.811Z,2.33
2024-04-25T10:44:09.692Z,2.50
2024-04-25T10:45:11.405Z,3.10
2024-04-25T10:46:13.153Z,2.55
2024-04-25T10:47:15.029Z,3.05
2024-04-25T10:48:18.083Z,2.78
2024-04-25T10:49:20.149Z,3.17
2024-04-25T10:50:22.121Z,2.78
2024-04-25T10:51:23.981Z,3.70
2024-04-25T10:52:25.838Z,3.28
2024-04-25T10:53:28.081Z,3.15
2024-04-25T10:54:29.820Z,3.45
2024-04-25T10:55:31.585Z,3.85
2024-04-25T10:56:33.516Z,3.97
2024-04-25T10:57:35.227Z,4.00
2024-04-25T10:58:37.056Z,3.50
2024-04-25T10:59:38.764Z,3.70
2024-04-25T11:00:41.839Z,3.17
2024-04-25T11:01:43.576Z,3.17
2024-04-25T11:02:45.621Z,3.75
2024-04-25T11:03:58.667Z,3.50
2024-04-25T11:05:00.814Z,3.00
2024-04-25T11:06:02.895Z,3.40
2024-04-25T11:07:08.513Z,3.10
2024-04-25T11:08:10.422Z,3.28
2024-04-25T11:09:15.168Z,2.72
2024-04-25T11:10:17.690Z,2.40
2024-04-25T11:11:19.908Z,2.05
2024-04-25T11:12:22.851Z,2.75
2024-04-25T11:13:24.578Z,2.28
2024-04-25T11:14:26.804Z,2.65
2024-04-25T11:15:30.550Z,3.10
2024-04-25T11:16:38.891Z,3.08
2024-04-25T11:17:50.248Z,4.03
2024-04-25T11:19:04.576Z,4.00
2024-04-25T11:20:12.915Z,4.13
2024-04-25T11:21:15.495Z,4.07
2024-04-25T11:23:23.362Z,4.30
2024-04-25T11:24:25.341Z,4.10
2024-04-25T11:25:27.209Z,4.25
2024-04-25T11:26:29.139Z,4.38
2024-04-25T11:27:30.930Z,5.20
2024-04-25T11:28:33.524Z,4.32
2024-04-25T11:29:35.264Z,4.35
2024-04-25T11:30:37.516Z,3.85
2024-04-25T11:31:39.829Z,4.28
2024-04-25T11:32:44.875Z,4.53
2024-04-25T11:33:46.735Z,4.32
2024-04-25T11:34:48.523Z,3.50
2024-04-25T11:35:51.203Z,4.57
2024-04-25T11:36:59.642Z,4.45
2024-04-25T11:38:01.420Z,3.95
2024-04-25T11:39:04.109Z,3.97
2024-04-25T11:40:06.491Z,4.43
2024-04-25T11:41:08.402Z,5.18
2024-04-25T11:42:10.399Z,5.32
2024-04-25T11:43:16.724Z,4.93
2024-04-25T11:44:18.532Z,4.70
2024-04-25T11:45:20.262Z,4.20
2024-04-25T11:46:22.072Z,4.90
2024-04-25T11:47:24.632Z,4.65
2024-04-25T11:48:27.860Z,4.75
2024-04-25T11:49:30.441Z,5.15
2024-04-25T11:50:32.819Z,4.97
2024-04-25T11:51:34.790Z,4.93
2024-04-25T11:52:36.531Z,4.72
2024-04-25T11:53:38.825Z,5.50
2024-04-25T11:54:40.638Z,5.28
2024-04-25T11:55:42.895Z,4.88
2024-04-25T11:56:44.735Z,5.53
2024-04-25T11:57:46.427Z,4.90
2024-04-25T11:58:48.099Z,4.43
2024-04-25T11:59:49.843Z,3.85
2024-04-25T12:00:51.992Z,5.07
2024-04-25T12:01:54.892Z,4.28
2024-04-25T12:02:56.863Z,5.25
2024-04-25T12:03:58.591Z,5.80
2024-04-25T12:05:00.739Z,5.78
2024-04-25T12:06:03.932Z,5.15
2024-04-25T12:07:05.877Z,4.65
2024-04-25T12:08:08.128Z,4.47
2024-04-25T12:09:09.960Z,4.65
2024-04-25T12:10:12.066Z,4.20
2024-04-25T12:11:13.788Z,4.28
2024-04-25T12:12:15.623Z,3.85
2024-04-25T12:13:18.425Z,3.63
2024-04-25T12:14:20.166Z,3.80
2024-04-25T12:15:22.092Z,4.10
2024-04-25T12:16:23.815Z,3.80
2024-04-25T12:17:26.181Z,3.85
2024-04-25T12:18:31.865Z,3.97
2024-04-25T12:19:34.149Z,4.20
2024-04-25T12:20:37.269Z,3.88
2024-04-25T12:21:39.016Z,4.28
2024-04-25T12:22:40.735Z,4.40
2024-04-25T12:23:42.527Z,4.05
2024-04-25T12:24:44.332Z,5.15
2024-04-25T12:25:47.765Z,5.47
2024-04-25T12:26:49.589Z,4.93
2024-04-25T12:27:51.350Z,4.82
2024-04-25T12:28:53.071Z,4.35
2024-04-25T12:29:54.865Z,4.50
2024-04-25T12:30:57.513Z,4.38
2024-04-25T12:31:59.389Z,5.07
2024-04-25T12:33:01.280Z,4.50
2024-04-25T12:34:03.238Z,4.22
2024-04-25T12:35:05.211Z,3.63
2024-04-25T12:36:07.986Z,4.28
2024-04-25T12:37:09.704Z,3.88
2024-04-25T12:38:11.428Z,3.55
2024-04-25T12:39:13.196Z,3.97
2024-04-25T12:40:15.072Z,3.63
2024-04-25T12:41:16.891Z,3.20
2024-04-25T12:42:22.504Z,3.33
2024-04-25T12:43:24.379Z,3.55
2024-04-25T12:44:29.406Z,3.45
2024-04-25T12:45:37.644Z,3.65
2024-04-25T12:46:40.249Z,3.25
2024-04-25T12:47:42.077Z,3.70
2024-04-25T12:48:45.117Z,3.10
2024-04-25T12:49:46.897Z,2.70
2024-04-25T12:50:48.695Z,2.83
2024-04-25T12:51:53.025Z,2.90
2024-04-25T12:52:54.836Z,3.15
2024-04-25T12:53:56.751Z,3.15
2024-04-25T12:54:58.493Z,3.35
2024-04-25T12:56:00.842Z,3.08
2024-04-25T12:57:02.693Z,3.08
2024-04-25T12:58:04.552Z,3.03
2024-04-25T12:59:06.682Z,3.13
2024-04-25T13:00:08.973Z,3.42
2024-04-25T13:01:10.728Z,3.42
2024-04-25T13:02:12.606Z,3.80
2024-04-25T13:03:14.471Z,4.32
2024-04-25T13:04:17.062Z,5.07
2024-04-25T13:05:20.491Z,4.43
2024-04-25T13:06:22.301Z,5.05
2024-04-25T13:07:23.993Z,3.97
2024-04-25T13:08:25.783Z,4.32
2024-04-25T13:09:29.814Z,4.55
2024-04-25T13:10:31.908Z,4.25
2024-04-25T13:11:34.305Z,4.72
2024-04-25T13:12:36.194Z,4.25
2024-04-25T13:13:37.898Z,5.13
2024-04-25T13:14:39.657Z,4.85
2024-04-25T13:15:41.364Z,4.30
2024-04-25T13:16:43.066Z,4.35
2024-04-25T13:17:45.042Z,4.20
2024-04-25T13:18:47.530Z,3.95
2024-04-25T13:19:49.376Z,4.40
2024-04-25T13:20:51.296Z,2.95
2024-04-25T13:21:53.573Z,3.50
2024-04-25T13:22:55.384Z,3.40
2024-04-25T13:23:57.744Z,3.90
2024-04-25T13:24:59.559Z,3.45
2024-04-25T13:26:01.259Z,3.42
2024-04-25T13:27:03.634Z,3.58
2024-04-25T13:28:05.706Z,3.30
2024-04-25T13:29:07.418Z,3.30
2024-04-25T13:30:10.258Z,3.97
2024-04-25T13:31:12.280Z,4.07
2024-04-25T13:32:14.757Z,4.90
2024-04-25T13:33:16.689Z,4.07
2024-04-25T13:34:23.018Z,4.18
2024-04-25T13:35:24.887Z,4.22
2024-04-25T13:36:28.415Z,4.18
2024-04-25T13:37:30.253Z,4.25
2024-04-25T13:38:32.282Z,4.60
2024-04-25T13:39:34.444Z,4.95
2024-04-25T13:40:36.608Z,5.07
2024-04-25T13:41:38.315Z,5.10
2024-04-25T13:42:40.803Z,5.70
2024-04-25T13:43:43.239Z,5.32
2024-04-25T13:44:45.023Z,4.97
2024-04-25T13:45:46.837Z,5.15
2024-04-25T13:46:49.125Z,5.10
2024-04-25T13:47:51.795Z,6.13
2024-04-25T13:48:54.769Z,6.22
2024-04-25T13:49:56.530Z,6.40
2024-04-25T13:50:58.858Z,7.13
2024-04-25T13:52:00.585Z,7.45
2024-04-25T13:53:02.379Z,7.85
2024-04-25T13:54:07.649Z,8.35
2024-04-25T13:55:09.618Z,8.43
2024-04-25T13:56:11.449Z,9.05
2024-04-25T13:57:13.507Z,9.63